Time;durP1;ratioP1;P1;durP2;ratioP2;P2;SDS_P1;SDS_P2;PMS_P1;PMS_P2;Temp;Humidity;BMP_temperature;BMP_pressure;BME280_temperature;BME280_humidity;BME280_pressure;Samples;Min_cycle;Max_cycle;Signal;HPM_P1;HPM_P2
2023/03/17 00:02:22;;;;;;;5.28;4.10;;;;;;;7.12;100.00;162426.53;5070795;28;20021;-60
2023/03/17 00:04:48;;;;;;;12.43;4.55;;;;;;;7.13;100.00;162430.59;5069476;28;20060;-60
2023/03/17 00:07:15;;;;;;;7.30;3.55;;;;;;;7.17;100.00;162440.03;5070992;28;20020;-60
2023/03/17 00:09:41;;;;;;;8.70;4.82;;;;;;;7.16;100.00;162437.31;5068697;28;20182;-59
2023/03/17 00:12:10;;;;;;;10.38;4.20;;;;;;;7.13;100.00;162430.59;5070961;28;20028;-60
2023/03/17 00:14:36;;;;;;;4.60;3.53;;;;;;;7.19;100.00;162444.06;5069448;28;20025;-60
2023/03/17 00:17:01;;;;;;;3.97;3.55;;;;;;;7.14;100.00;162431.94;5070598;28;20444;-60
2023/03/17 00:19:31;;;;;;;5.80;4.75;;;;;;;7.15;100.00;162434.63;5068875;28;20098;-60
2023/03/17 00:21:58;;;;;;;7.30;5.18;;;;;;;7.14;100.00;162433.31;5069766;28;20058;-60
2023/03/17 00:24:24;;;;;;;4.90;3.22;;;;;;;7.15;100.00;162434.63;5068241;28;20028;-60
2023/03/17 00:26:50;;;;;;;3.03;2.83;;;;;;;7.17;100.00;162440.03;5070776;28;20032;-60
2023/03/17 00:29:15;;;;;;;4.93;4.28;;;;;;;7.11;100.00;162423.88;5070417;28;20024;-60
2023/03/17 00:31:44;;;;;;;4.72;4.15;;;;;;;7.06;100.00;162410.38;5068643;28;20039;-59
2023/03/17 00:34:17;;;;;;;5.20;3.28;;;;;;;7.03;100.00;162402.31;5071069;28;20035;-59
2023/03/17 00:36:45;;;;;;;5.35;3.13;;;;;;;6.95;100.00;162383.47;5068854;28;20071;-59
2023/03/17 00:39:15;;;;;;;9.07;3.47;;;;;;;6.87;100.00;162361.91;5064812;28;20032;-59
2023/03/17 00:41:41;;;;;;;5.15;4.43;;;;;;;6.73;100.00;162324.22;5068771;28;20037;-59
2023/03/17 00:44:06;;;;;;;4.00;3.63;;;;;;;6.62;100.00;162295.94;5068980;28;20031;-59
2023/03/17 00:46:36;;;;;;;5.80;4.55;;;;;;;6.54;100.00;162274.41;5048569;28;20048;-59
2023/03/17 00:49:09;;;;;;;6.82;3.53;;;;;;;6.55;100.00;162278.44;5050588;28;20314;-59
2023/03/17 00:51:35;;;;;;;3.75;3.33;;;;;;;6.55;100.00;162278.44;5048947;28;20488;-59
2023/03/17 00:54:00;;;;;;;6.25;4.07;;;;;;;6.49;100.00;162262.28;5049934;28;20025;-59
2023/03/17 00:56:25;;;;;;;3.95;3.65;;;;;;;6.61;100.00;162294.56;5049094;28;20396;-59
2023/03/17 00:58:51;;;;;;;5.30;3.38;;;;;;;6.59;100.00;162289.19;5050020;28;20078;-59
2023/03/17 01:01:17;;;;;;;4.13;3.70;;;;;;;6.55;100.00;162278.44;5048413;28;20037;-60
2023/03/17 01:03:43;;;;;;;4.50;3.80;;;;;;;6.55;100.00;162278.44;5050443;28;20074;-59
2023/03/17 01:06:12;;;;;;;3.90;3.55;;;;;;;6.57;100.00;162283.81;5048889;28;20071;-59
2023/03/17 01:08:39;;;;;;;3.95;3.60;;;;;;;6.60;100.00;162291.88;5049617;28;20029;-60
2023/03/17 01:11:05;;;;;;;6.32;3.95;;;;;;;6.65;100.00;162305.38;5066428;28;20087;-59
2023/03/17 01:13:31;;;;;;;7.15;4.30;;;;;;;6.66;100.00;162308.03;5070683;28;20082;-60
2023/03/17 01:15:56;;;;;;;6.82;3.78;;;;;;;6.68;100.00;162312.09;5068217;28;20960;-59
2023/03/17 01:18:22;;;;;;;5.53;4.60;;;;;;;6.66;100.00;162308.03;5070269;28;20055;-61
2023/03/17 01:20:49;;;;;;;8.25;5.05;;;;;;;6.69;100.00;162313.44;5068046;28;20047;-61
2023/03/17 01:23:15;;;;;;;5.15;4.32;;;;;;;6.65;100.00;162305.38;5070156;28;20115;-61
2023/03/17 01:25:42;;;;;;;4.80;4.28;;;;;;;6.59;100.00;162289.19;5068554;28;20492;-61
2023/03/17 01:28:12;;;;;;;5.13;3.92;;;;;;;6.51;100.00;162267.69;5070433;28;20075;-61
2023/03/17 01:30:39;;;;;;;4.93;3.85;;;;;;;6.51;100.00;162267.69;5067670;28;20115;-61
2023/03/17 01:33:07;;;;;;;7.97;3.60;;;;;;;6.50;100.00;162264.97;5070180;28;20047;-61
2023/03/17 01:35:34;;;;;;;4.32;4.03;;;;;;;6.54;100.00;162275.72;5071938;28;20040;-61
2023/03/17 01:38:00;;;;;;;6.60;3.72;;;;;;;6.55;100.00;162278.44;5073141;28;20032;-61
2023/03/17 01:40:29;;;;;;;6.10;4.72;;;;;;;6.47;100.00;162256.88;5071978;28;20531;-60
2023/03/17 01:43:09;;;;;;;3.88;3.58;;;;;;;6.41;100.00;162242.06;5073491;28;20021;-60
2023/03/17 01:46:15;;;;;;;5.53;3.63;;;;;;;6.43;100.00;162246.13;5071899;28;20036;-61
2023/03/17 01:48:45;;;;;;;5.97;4.40;;;;;;;6.31;100.00;162216.50;5073293;28;20032;-60
2023/03/17 01:51:15;;;;;;;7.78;4.07;;;;;;;6.29;100.00;162211.09;5072034;28;20032;-61
2023/03/17 01:53:40;;;;;;;7.22;4.85;;;;;;;6.24;100.00;162197.66;5073065;28;20029;-61
2023/03/17 01:56:06;;;;;;;8.23;4.00;;;;;;;6.21;100.00;162189.59;5071990;28;20526;-60
2023/03/17 01:58:33;;;;;;;5.63;3.50;;;;;;;6.16;100.00;162176.13;5071805;28;20036;-60
2023/03/17 02:00:58;;;;;;;4.32;3.92;;;;;;;6.11;100.00;162162.66;5061268;28;20555;-60
2023/03/17 02:03:24;;;;;;;5.25;3.90;;;;;;;6.06;100.00;162149.22;5053114;28;20075;-60
2023/03/17 02:05:52;;;;;;;3.85;3.55;;;;;;;6.01;100.00;162138.44;5051522;28;20539;-60
2023/03/17 02:08:17;;;;;;;3.78;3.47;;;;;;;5.93;100.00;162116.84;5054117;28;20033;-61
2023/03/17 02:10:44;;;;;;;4.35;3.60;;;;;;;5.95;100.00;162120.91;5068654;28;20105;-60
2023/03/17 02:13:12;;;;;;;4.13;3.72;;;;;;;5.91;100.00;162110.13;5073028;28;20024;-60
2023/03/17 02:15:40;;;;;;;4.85;3.65;;;;;;;5.99;100.00;162133.09;5071109;28;20044;-61
2023/03/17 02:18:07;;;;;;;4.72;3.70;;;;;;;5.92;100.00;162112.81;5072853;28;20052;-60
2023/03/17 02:20:33;;;;;;;5.60;4.10;;;;;;;5.93;100.00;162116.84;5071277;28;20538;-60
2023/03/17 02:22:59;;;;;;;21.98;6.63;;;;;;;5.93;100.00;162116.84;5072550;28;20111;-60
2023/03/17 02:25:29;;;;;;;3.97;3.38;;;;;;;5.89;100.00;162106.09;5071561;28;20036;-60
2023/03/17 02:28:18;;;;;;;5.30;4.28;;;;;;;5.87;100.00;162100.72;5073265;28;20379;-60
2023/03/17 02:30:43;;;;;;;4.57;4.18;;;;;;;5.89;100.00;162106.09;5070701;28;20064;-60
2023/03/17 02:33:10;;;;;;;4.03;3.63;;;;;;;5.84;100.00;162093.97;5072795;28;20032;-60
2023/03/17 02:35:36;;;;;;;5.57;4.13;;;;;;;5.89;100.00;162106.09;5071007;28;20098;-61
2023/03/17 02:38:02;;;;;;;4.25;3.42;;;;;;;5.94;100.00;162119.53;5072497;28;20028;-61
2023/03/17 02:40:27;;;;;;;6.60;4.40;;;;;;;5.99;100.00;162131.72;5065593;28;20549;-61
2023/03/17 02:42:53;;;;;;;4.15;3.35;;;;;;;6.03;100.00;162143.84;5072728;28;20025;-60
2023/03/17 02:45:18;;;;;;;5.50;4.20;;;;;;;6.10;100.00;162159.97;5070408;28;20098;-61
2023/03/17 02:47:44;;;;;;;5.78;3.40;;;;;;;6.11;100.00;162162.66;5071949;28;20472;-61
2023/03/17 02:50:17;;;;;;;7.60;4.10;;;;;;;6.07;100.00;162151.94;5070975;28;20081;-61
2023/03/17 02:52:42;;;;;;;3.75;3.40;;;;;;;5.99;100.00;162133.09;5071489;28;20494;-60
2023/03/17 02:55:09;;;;;;;8.07;4.80;;;;;;;6.10;100.00;162161.34;5071074;28;20041;-61
2023/03/17 02:57:34;;;;;;;4.00;3.38;;;;;;;6.08;100.00;162154.56;5072712;28;20036;-61
2023/03/17 03:00:00;;;;;;;7.88;5.45;;;;;;;6.14;100.00;162170.75;5069971;28;20352;-61
2023/03/17 03:02:25;;;;;;;5.07;3.72;;;;;;;6.14;100.00;162172.09;5072254;28;20491;-60
2023/03/17 03:04:51;;;;;;;20.73;6.75;;;;;;;6.18;100.00;162181.50;5069900;28;20431;-61
2023/03/17 03:07:17;;;;;;;4.60;3.58;;;;;;;6.15;100.00;162174.78;5071915;28;20030;-61
2023/03/17 03:09:42;;;;;;;6.05;3.20;;;;;;;6.16;100.00;162176.13;5070235;28;20036;-60
2023/03/17 03:12:08;;;;;;;7.53;3.38;;;;;;;6.12;100.00;162165.38;5072170;28;20460;-61
2023/03/17 03:14:34;;;;;;;4.03;3.72;;;;;;;6.19;100.00;162184.22;5070507;28;20028;-60
2023/03/17 03:16:59;;;;;;;4.38;3.95;;;;;;;6.21;100.00;162189.59;5072062;28;20027;-61
2023/03/17 03:19:25;;;;;;;5.32;4.75;;;;;;;6.25;100.00;162199.03;5070061;28;20056;-61
2023/03/17 03:21:50;;;;;;;3.95;3.45;;;;;;;6.26;100.00;162203.06;5071129;28;20032;-61
2023/03/17 03:24:15;;;;;;;3.80;3.30;;;;;;;6.21;100.00;162189.59;5071896;28;20031;-61
2023/03/17 03:26:41;;;;;;;6.78;4.90;;;;;;;6.19;100.00;162184.22;5070244;28;20047;-61
2023/03/17 03:29:06;;;;;;;8.48;4.60;;;;;;;6.21;100.00;162189.59;5069310;28;20017;-61
2023/03/17 03:31:31;;;;;;;6.53;3.97;;;;;;;6.24;100.00;162197.66;5050346;28;20033;-61
2023/03/17 03:33:57;;;;;;;4.22;3.63;;;;;;;6.24;100.00;162197.66;5051301;28;20039;-61
2023/03/17 03:36:22;;;;;;;6.88;4.22;;;;;;;6.24;100.00;162197.66;5049920;28;20040;-61
2023/03/17 03:38:48;;;;;;;6.28;5.47;;;;;;;6.21;100.00;162188.22;5051656;28;20032;-61
2023/03/17 03:41:13;;;;;;;6.50;4.63;;;;;;;6.16;100.00;162176.13;5049769;28;20045;-61
2023/03/17 03:43:39;;;;;;;5.60;4.18;;;;;;;6.16;100.00;162177.50;5050952;28;20592;-61
2023/03/17 03:46:04;;;;;;;4.35;3.85;;;;;;;6.17;100.00;162180.19;5050015;28;20074;-62
2023/03/17 03:48:30;;;;;;;7.00;4.43;;;;;;;6.18;100.00;162182.84;5051704;28;20025;-60
2023/03/17 03:51:00;;;;;;;10.13;6.03;;;;;;;6.22;100.00;162192.25;5049478;28;20029;-60
2023/03/17 03:53:26;;;;;;;7.40;4.53;;;;;;;6.25;100.00;162200.34;5031431;28;20045;-60
2023/03/17 03:55:52;;;;;;;5.88;3.80;;;;;;;6.27;100.00;162205.75;5029807;28;20037;-60
2023/03/17 03:58:18;;;;;;;5.10;4.65;;;;;;;6.30;100.00;162213.78;5046820;28;20040;-60
2023/03/17 04:00:43;;;;;;;5.60;4.78;;;;;;;6.33;100.00;162221.91;5049494;28;20099;-60
2023/03/17 04:03:08;;;;;;;5.22;3.95;;;;;;;6.37;100.00;162231.31;5051069;28;20024;-60
2023/03/17 04:05:34;;;;;;;5.82;5.18;;;;;;;6.44;100.00;162248.84;5049211;28;20408;-60
2023/03/17 04:07:59;;;;;;;7.65;3.22;;;;;;;6.40;100.00;162238.03;5050839;28;20024;-60
2023/03/17 04:10:25;;;;;;;7.35;3.92;;;;;;;6.43;100.00;162246.13;5049732;28;20040;-60
2023/03/17 04:12:50;;;;;;;4.68;3.30;;;;;;;6.44;100.00;162248.84;5050424;28;20395;-60
2023/03/17 04:15:18;;;;;;;5.28;4.78;;;;;;;6.32;100.00;162219.19;5049551;28;20542;-60
2023/03/17 04:17:44;;;;;;;6.57;4.40;;;;;;;6.32;100.00;162219.19;5050849;28;20020;-60
2023/03/17 04:20:10;;;;;;;6.88;4.85;;;;;;;6.30;100.00;162213.78;5049203;28;20400;-60
2023/03/17 04:22:36;;;;;;;5.28;3.88;;;;;;;6.27;100.00;162205.75;5051001;28;20091;-60
2023/03/17 04:25:01;;;;;;;3.85;3.55;;;;;;;6.20;100.00;162186.91;5049347;28;20500;-59
2023/03/17 04:27:27;;;;;;;4.38;3.85;;;;;;;6.23;100.00;162194.94;5050592;28;20406;-59
2023/03/17 04:29:52;;;;;;;6.07;5.53;;;;;;;6.21;100.00;162188.22;5067093;28;20051;-59
2023/03/17 04:32:17;;;;;;;4.97;4.10;;;;;;;6.25;100.00;162200.34;5070871;28;20082;-59
2023/03/17 04:34:43;;;;;;;7.03;3.67;;;;;;;6.22;100.00;162192.25;5070212;28;20032;-59
2023/03/17 04:37:09;;;;;;;6.50;3.55;;;;;;;6.13;100.00;162169.38;5069385;28;20044;-59
2023/03/17 04:39:35;;;;;;;6.82;3.72;;;;;;;6.19;100.00;162184.22;5070835;28;20052;-60
2023/03/17 04:42:01;;;;;;;4.20;3.28;;;;;;;6.21;100.00;162188.22;5067788;28;20075;-59
2023/03/17 04:44:26;;;;;;;4.95;3.05;;;;;;;6.19;100.00;162184.22;5070769;28;20104;-59
2023/03/17 04:46:52;;;;;;;4.22;3.83;;;;;;;6.12;100.00;162165.38;5069051;28;20090;-60
2023/03/17 04:49:17;;;;;;;4.15;3.67;;;;;;;6.09;100.00;162157.28;5070392;28;20499;-59
2023/03/17 04:51:43;;;;;;;5.30;4.28;;;;;;;5.97;100.00;162127.63;5068962;28;20501;-59
2023/03/17 04:54:09;;;;;;;3.70;3.45;;;;;;;5.89;100.00;162106.09;5070616;28;20479;-59
2023/03/17 04:56:35;;;;;;;5.63;4.80;;;;;;;5.81;100.00;162084.56;5068837;28;20048;-59
2023/03/17 04:59:00;;;;;;;6.47;4.65;;;;;;;5.77;100.00;162073.81;5050612;28;20021;-60
2023/03/17 05:01:25;;;;;;;4.28;3.88;;;;;;;5.66;100.00;162046.91;5048726;28;20041;-61
2023/03/17 05:03:51;;;;;;;4.53;3.78;;;;;;;5.68;100.00;162052.28;5050374;28;20028;-61
2023/03/17 05:06:16;;;;;;;4.07;3.60;;;;;;;5.67;100.00;162049.59;5049057;28;20037;-61
2023/03/17 05:08:45;;;;;;;4.30;3.10;;;;;;;5.61;100.00;162033.47;5052028;28;20039;-61
2023/03/17 05:11:12;;;;;;;4.30;3.90;;;;;;;5.59;100.00;162028.06;5072635;28;20372;-61
2023/03/17 05:13:39;;;;;;;4.55;3.60;;;;;;;5.56;100.00;162019.97;5072589;28;20051;-61
2023/03/17 05:16:06;;;;;;;4.07;3.67;;;;;;;5.57;100.00;162022.66;5052773;28;20045;-61
2023/03/17 05:18:31;;;;;;;4.88;3.90;;;;;;;5.55;100.00;162017.28;5054062;28;20191;-61
2023/03/17 05:20:57;;;;;;;6.88;4.90;;;;;;;5.48;100.00;161998.44;5052106;28;20135;-61
2023/03/17 05:23:22;;;;;;;5.55;3.72;;;;;;;5.37;100.00;161971.56;5054011;28;20033;-61
2023/03/17 05:25:48;;;;;;;6.45;4.57;;;;;;;5.42;100.00;161983.69;5058116;28;20061;-61
2023/03/17 05:28:14;;;;;;;5.97;3.65;;;;;;;5.46;100.00;161993.09;5073396;28;20165;-61
2023/03/17 05:30:42;;;;;;;3.97;3.58;;;;;;;5.44;100.00;161987.69;5072222;28;20044;-61
2023/03/17 05:33:07;;;;;;;4.85;3.88;;;;;;;5.39;100.00;161975.59;5074123;28;20082;-61
2023/03/17 05:35:32;;;;;;;3.85;3.45;;;;;;;5.34;100.00;161963.47;5072217;28;20036;-61
2023/03/17 05:37:58;;;;;;;3.78;3.47;;;;;;;5.29;100.00;161950.03;5073627;28;20025;-61
2023/03/17 05:40:23;;;;;;;4.60;3.92;;;;;;;5.27;100.00;161944.66;5072548;28;20449;-61
2023/03/17 05:42:52;;;;;;;6.55;3.90;;;;;;;5.38;100.00;161972.88;5073149;28;20024;-60
2023/03/17 05:45:17;;;;;;;4.88;3.90;;;;;;;5.49;100.00;162002.50;5072446;28;20041;-60
2023/03/17 05:47:43;;;;;;;4.50;4.10;;;;;;;5.53;100.00;162013.25;5073560;28;20023;-59
2023/03/17 05:50:09;;;;;;;4.10;3.33;;;;;;;5.59;100.00;162028.06;5071817;28;20064;-59
2023/03/17 05:52:35;;;;;;;7.20;4.65;;;;;;;5.63;100.00;162038.81;5073704;28;20028;-59
2023/03/17 05:55:01;;;;;;;5.55;3.65;;;;;;;5.77;100.00;162073.81;5071958;28;20048;-60
2023/03/17 05:57:27;;;;;;;6.88;4.18;;;;;;;5.84;100.00;162093.97;5064281;28;20033;-60
2023/03/17 05:59:53;;;;;;;5.78;4.35;;;;;;;5.94;100.00;162119.53;5056933;28;20068;-61
2023/03/17 06:02:19;;;;;;;5.75;5.25;;;;;;;6.01;100.00;162138.44;5073229;28;20558;-59
2023/03/17 06:04:45;;;;;;;7.32;3.90;;;;;;;6.07;100.00;162153.25;5071384;28;20510;-59
2023/03/17 06:07:10;;;;;;;4.32;3.92;;;;;;;6.13;100.00;162169.38;5073625;28;20017;-59
2023/03/17 06:09:37;;;;;;;7.40;3.75;;;;;;;6.23;100.00;162193.63;5072190;28;22227;-59
2023/03/17 06:12:02;;;;;;;3.50;3.20;;;;;;;6.31;100.00;162216.50;5073201;28;20024;-59
2023/03/17 06:14:28;;;;;;;4.03;3.72;;;;;;;6.38;100.00;162232.63;5071887;28;20028;-59
2023/03/17 06:16:53;;;;;;;4.70;3.25;;;;;;;6.48;100.00;162259.59;5072973;28;20024;-58
2023/03/17 06:19:19;;;;;;;4.57;4.18;;;;;;;6.48;100.00;162260.91;5071141;28;20051;-58
2023/03/17 06:21:44;;;;;;;10.10;3.40;;;;;;;6.56;100.00;162279.75;5071861;28;20025;-59
2023/03/17 06:24:10;;;;;;;4.13;3.72;;;;;;;6.67;100.00;162310.72;5073131;28;20383;-58
2023/03/17 06:26:36;;;;;;;6.68;6.07;;;;;;;6.73;100.00;162324.22;5071386;28;20422;-59
2023/03/17 06:29:03;;;;;;;4.05;3.75;;;;;;;6.75;100.00;162329.56;5072979;28;20024;-59
2023/03/17 06:31:28;;;;;;;6.30;3.95;;;;;;;6.78;100.00;162337.66;5071370;28;20029;-59
2023/03/17 06:33:54;;;;;;;7.47;5.15;;;;;;;6.88;100.00;162364.63;5072268;28;20029;-59
2023/03/17 06:36:19;;;;;;;5.28;3.92;;;;;;;7.02;100.00;162399.63;5071600;28;20033;-59
2023/03/17 06:38:45;;;;;;;3.55;2.95;;;;;;;7.14;100.00;162433.31;5072519;28;20016;-59
2023/03/17 06:41:10;;;;;;;5.18;3.63;;;;;;;7.23;100.00;162456.19;5070697;28;20488;-59
2023/03/17 06:43:36;;;;;;;4.93;3.22;;;;;;;7.36;100.00;162488.50;5072604;28;20032;-59
2023/03/17 06:46:02;;;;;;;6.05;4.65;;;;;;;7.43;100.00;162507.34;5071091;28;20037;-59
2023/03/17 06:48:27;;;;;;;3.80;3.47;;;;;;;7.51;100.00;162528.91;5072042;28;20031;-59
2023/03/17 06:50:53;;;;;;;3.78;3.35;;;;;;;7.56;100.00;162542.38;5070731;28;20043;-59
2023/03/17 06:53:18;;;;;;;7.18;4.90;;;;;;;7.59;100.00;162549.13;5072541;28;20063;-59
2023/03/17 06:55:43;;;;;;;4.53;3.40;;;;;;;7.60;100.00;162551.78;5070258;28;20106;-59
2023/03/17 06:58:09;;;;;;;3.30;3.00;;;;;;;7.59;100.00;162550.47;5071984;28;20040;-59
2023/03/17 07:00:37;;;;;;;4.40;3.53;;;;;;;7.56;100.00;162542.38;5069734;28;20044;-59
2023/03/17 07:03:03;;;;;;;5.43;4.45;;;;;;;7.56;100.00;162542.38;5070365;28;20739;-58
2023/03/17 07:05:29;;;;;;;8.15;4.57;;;;;;;7.61;100.00;162554.50;5070325;28;20098;-59
2023/03/17 07:07:54;;;;;;;4.07;3.55;;;;;;;7.69;100.00;162574.72;5071527;28;20434;-59
2023/03/17 07:10:21;;;;;;;8.32;4.13;;;;;;;7.75;100.00;162590.88;5066066;28;20033;-59
2023/03/17 07:12:47;;;;;;;3.97;3.58;;;;;;;7.91;100.00;162632.63;5071297;28;20100;-59
2023/03/17 07:15:13;;;;;;;6.60;3.63;;;;;;;7.99;100.00;162652.88;5062978;28;20051;-59
2023/03/17 07:17:38;;;;;;;4.90;3.83;;;;;;;8.06;100.00;162671.75;5051085;28;20024;-59
2023/03/17 07:20:05;;;;;;;7.53;4.15;;;;;;;8.09;100.00;162681.19;5050498;28;20041;-59
2023/03/17 07:22:30;;;;;;;7.63;4.22;;;;;;;8.11;100.00;162685.19;5051576;28;20094;-58
2023/03/17 07:24:56;;;;;;;3.95;3.55;;;;;;;8.19;100.00;162706.78;5050084;28;20037;-61
2023/03/17 07:27:24;;;;;;;10.35;4.45;;;;;;;8.28;100.00;162729.66;5051776;28;20079;-59
2023/03/17 07:29:50;;;;;;;6.87;4.13;;;;;;;8.40;100.00;162760.69;5054549;28;20557;-59
2023/03/17 07:32:15;;;;;;;5.95;3.28;;;;;;;8.51;100.00;162790.41;5071113;28;20032;-59
2023/03/17 07:34:40;;;;;;;6.47;3.85;;;;;;;8.68;100.00;162833.50;5069587;28;20036;-59
2023/03/17 07:37:06;;;;;;;3.83;3.35;;;;;;;8.85;100.00;162878.03;5071507;28;20472;-59
2023/03/17 07:39:32;;;;;;;8.00;4.38;;;;;;;9.01;100.00;162919.81;5069903;28;20357;-59
2023/03/17 07:41:57;;;;;;;3.80;3.40;;;;;;;9.15;100.00;162956.25;5070782;28;20475;-59
2023/03/17 07:44:23;;;;;;;4.85;3.38;;;;;;;9.23;100.00;162976.44;5070031;28;20091;-59
2023/03/17 07:46:50;;;;;;;10.77;3.78;;;;;;;9.37;100.00;163014.22;5070658;28;20031;-59
2023/03/17 07:49:16;;;;;;;5.68;4.03;;;;;;;9.50;100.00;163049.28;5071628;28;20028;-59
2023/03/17 07:51:44;;;;;;;4.47;3.50;;;;;;;9.58;100.00;163068.16;5069493;28;20445;-59
2023/03/17 07:54:11;;;;;;;4.22;3.67;;;;;;;9.64;100.00;163084.38;5070822;28;20486;-59
2023/03/17 07:56:37;;;;;;;6.53;4.50;;;;;;;9.78;100.00;163122.16;5069590;28;20052;-59
2023/03/17 07:59:03;;;;;;;5.35;3.97;;;;;;;9.98;100.00;163173.41;5070552;28;20396;-59
2023/03/17 08:01:29;;;;;;;5.15;3.47;;;;;;;10.33;100.00;163265.16;5068959;28;20406;-59
2023/03/17 08:03:55;;;;;;;6.93;3.72;;;;;;;10.71;100.00;163365.09;5070766;28;20024;-59
2023/03/17 08:06:21;;;;;;;4.20;3.75;;;;;;;11.25;100.00;163505.50;5069548;28;20059;-59
2023/03/17 08:08:47;;;;;;;5.88;3.70;;;;;;;11.69;100.00;163621.66;5070858;28;20021;-59
2023/03/17 08:11:12;;;;;;;5.38;3.17;;;;;;;12.06;100.00;163718.97;5069300;28;20041;-59
2023/03/17 08:13:38;;;;;;;8.25;4.78;;;;;;;12.15;100.00;163740.59;5071129;28;20020;-59
2023/03/17 08:16:03;;;;;;;6.15;3.33;;;;;;;12.02;100.00;163708.19;5069744;28;20513;-59
2023/03/17 08:18:29;;;;;;;4.15;3.17;;;;;;;11.84;100.00;163660.81;5070629;28;20079;-59
2023/03/17 08:20:54;;;;;;;6.97;4.93;;;;;;;11.68;100.00;163618.94;5069256;28;20041;-59
2023/03/17 08:23:20;;;;;;;5.43;3.33;;;;;;;11.89;100.00;163672.97;5071140;28;20032;-59
2023/03/17 08:25:46;;;;;;;7.63;3.88;;;;;;;11.95;100.00;163689.16;5069290;28;20457;-59
2023/03/17 08:28:14;;;;;;;12.10;4.75;;;;;;;11.99;100.00;163700.06;5071178;28;20020;-60
2023/03/17 08:30:40;;;;;;;7.22;4.38;;;;;;;11.83;100.00;163656.75;5069219;28;20068;-59
2023/03/17 08:33:06;;;;;;;6.28;4.63;;;;;;;11.78;100.00;163643.28;5070437;28;20077;-59
2023/03/17 08:35:31;;;;;;;4.68;3.97;;;;;;;11.90;100.00;163675.69;5069575;28;20040;-59
2023/03/17 08:37:57;;;;;;;8.90;4.93;;;;;;;11.98;100.00;163696.03;5070627;28;20403;-59
2023/03/17 08:40:22;;;;;;;8.55;4.15;;;;;;;12.11;100.00;163729.75;5068976;28;20102;-59
2023/03/17 08:42:48;;;;;;;9.15;5.07;;;;;;;12.42;100.00;163810.84;5070105;28;20040;-59
2023/03/17 08:45:15;;;;;;;8.85;4.63;;;;;;;12.97;100.00;163955.44;5068950;28;20040;-59
2023/03/17 08:47:41;;;;;;;5.68;3.63;;;;;;;13.23;100.00;164023.06;5070339;28;20028;-58
2023/03/17 08:50:11;;;;;;;9.82;3.38;;;;;;;13.40;100.00;164069.09;5069326;28;20063;-59
2023/03/17 08:52:37;;;;;;;4.45;3.35;;;;;;;13.61;100.00;164124.50;5070398;28;20043;-59
2023/03/17 08:55:02;;;;;;;7.35;4.78;;;;;;;13.69;100.00;164143.44;5069054;28;20036;-59
2023/03/17 08:57:27;;;;;;;6.10;4.72;;;;;;;13.60;100.00;164121.78;5070253;28;20051;-59
2023/03/17 08:59:53;;;;;;;11.13;6.70;;;;;;;13.46;100.00;164083.94;5068929;28;20143;-59
2023/03/17 09:02:19;;;;;;;5.40;3.45;;;;;;;13.47;100.00;164086.66;5068050;28;20025;-60
2023/03/17 09:04:45;;;;;;;5.55;4.20;;;;;;;13.58;100.00;164116.41;5062791;28;20045;-59
2023/03/17 09:07:10;;;;;;;9.10;4.63;;;;;;;13.94;100.00;164211.09;5050792;28;20021;-58
2023/03/17 09:09:36;;;;;;;8.60;3.85;;;;;;;14.16;100.00;164267.88;5051194;28;20529;-59
2023/03/17 09:12:04;;;;;;;8.90;4.18;;;;;;;14.06;100.00;164240.81;5070260;28;20269;-60
2023/03/17 09:14:30;;;;;;;11.18;4.18;;;;;;;13.84;100.00;164182.69;5068990;28;20051;-59
2023/03/17 09:16:55;;;;;;;8.00;3.92;;;;;;;13.86;100.00;164188.06;5069505;28;20020;-59
2023/03/17 09:19:21;;;;;;;7.53;3.90;;;;;;;13.57;100.00;164113.72;5068698;28;20492;-59
2023/03/17 09:21:47;;;;;;;7.95;3.38;;;;;;;13.62;100.00;164127.22;5066953;28;20025;-59
2023/03/17 09:24:12;;;;;;;19.13;4.30;;;;;;;13.44;100.00;164078.56;5069894;28;20067;-59
2023/03/17 09:26:38;;;;;;;6.57;4.22;;;;;;;13.68;100.00;164140.72;5068359;28;20442;-59
2023/03/17 09:29:04;;;;;;;5.65;4.00;;;;;;;14.10;100.00;164253.00;5070063;28;20029;-59
2023/03/17 09:31:30;;;;;;;8.52;5.45;;;;;;;14.54;100.00;164368.00;5068026;28;20107;-59
2023/03/17 09:33:55;;;;;;;5.07;3.08;;;;;;;14.87;100.00;164453.31;5069443;28;20591;-59
2023/03/17 09:36:20;;;;;;;9.95;3.70;;;;;;;14.91;100.00;164465.50;5068458;28;20352;-60
2023/03/17 09:38:46;;;;;;;6.95;4.65;;;;;;;14.90;100.00;164461.38;5069721;28;20021;-59
2023/03/17 09:41:30;;;;;;;6.60;4.30;;;;;;;14.80;100.00;164435.69;5061997;28;20045;-59
2023/03/17 09:44:05;;;;;;;6.15;3.83;;;;;;;14.56;100.00;164373.38;5059352;28;20033;-59
2023/03/17 09:47:08;;;;;;;8.02;3.03;;;;;;;14.23;100.00;164285.44;5048162;28;20044;-60
2023/03/17 09:49:44;;;;;;;7.45;4.10;;;;;;;13.98;100.00;164219.16;5034564;28;20052;-59
2023/03/17 09:52:13;;;;;;;5.68;4.80;;;;;;;14.02;100.00;164230.03;5069831;28;20061;-59
2023/03/17 09:54:39;;;;;;;8.13;3.55;;;;;;;14.03;100.00;164232.72;5067716;28;20181;-59
2023/03/17 09:57:35;;;;;;;4.43;4.03;;;;;;;14.31;100.00;164305.75;5072100;28;20103;-59
2023/03/17 10:00:13;;;;;;;7.45;4.00;;;;;;;14.49;100.00;164353.13;5071166;28;20106;-59
2023/03/17 10:02:39;;;;;;;;;;;;;;;14.58;100.00;164378.81;5057855;28;20021;-60
2023/03/17 10:05:19;;;;;;;6.15;3.38;;;;;;;15.00;100.00;164487.16;5068538;28;20474;-59
2023/03/17 10:08:16;;;;;;;5.00;3.17;;;;;;;15.01;100.00;164489.81;5061092;28;20024;-59
2023/03/17 10:10:48;;;;;;;4.32;3.30;;;;;;;14.94;100.00;164470.88;5054805;28;20377;-59
2023/03/17 10:13:31;;;;;;;4.47;4.05;;;;;;;15.09;100.00;164511.47;5037454;28;20091;-59
2023/03/17 10:16:02;;;;;;;4.28;3.55;;;;;;;15.11;100.00;164516.91;5064542;28;20077;-59
2023/03/17 10:18:37;;;;;;;6.80;4.57;;;;;;;15.20;100.00;164539.88;5073180;28;20357;-59
2023/03/17 10:21:05;;;;;;;7.97;3.85;;;;;;;15.52;100.00;164625.22;5071405;28;20048;-59
2023/03/17 10:23:33;;;;;;;8.60;4.57;;;;;;;15.83;100.00;164706.47;5072172;28;20075;-59
2023/03/17 10:26:05;;;;;;;8.52;4.13;;;;;;;16.24;100.00;164812.09;5071107;28;20037;-59
2023/03/17 10:28:37;;;;;;;10.98;3.42;;;;;;;16.38;100.00;164848.69;5067991;28;20075;-59
2023/03/17 10:31:33;;;;;;;7.70;3.88;;;;;;;16.06;100.00;164766.03;5071027;28;21206;-59
2023/03/17 10:34:12;;;;;;;10.52;4.45;;;;;;;15.77;100.00;164690.16;5072667;28;20031;-59
2023/03/17 10:36:39;;;;;;;9.27;3.30;;;;;;;15.34;100.00;164576.47;5070719;28;20044;-59
2023/03/17 10:39:06;;;;;;;13.63;6.00;;;;;;;15.15;100.00;164527.72;5069810;28;20028;-59
2023/03/17 10:41:37;;;;;;;7.13;3.17;;;;;;;15.14;100.00;164525.03;5068336;28;20033;-59
2023/03/17 10:44:08;;;;;;;6.60;3.85;;;;;;;15.08;100.00;164508.75;5072164;28;20122;-59
2023/03/17 10:46:36;;;;;;;9.93;3.63;;;;;;;15.09;100.00;164511.47;5057190;28;20044;-59
2023/03/17 10:49:09;;;;;;;7.82;3.90;;;;;;;15.00;100.00;164487.16;5071146;28;20039;-59
2023/03/17 10:51:37;;;;;;;9.82;5.70;;;;;;;14.95;100.00;164473.56;5070593;28;20028;-59
2023/03/17 10:54:09;;;;;;;6.40;4.50;;;;;;;14.75;100.00;164422.16;5072016;28;20426;-59
2023/03/17 10:56:36;;;;;;;7.97;4.03;;;;;;;14.97;100.00;164480.34;5070735;28;20037;-59
2023/03/17 10:59:13;;;;;;;6.30;3.70;;;;;;;14.99;100.00;164485.75;5059375;28;20039;-59
2023/03/17 11:01:45;;;;;;;6.55;4.20;;;;;;;15.11;100.00;164516.91;5051455;28;20052;-59
2023/03/17 11:04:30;;;;;;;9.70;4.70;;;;;;;15.27;100.00;164558.84;5052193;28;20063;-59
2023/03/17 11:06:57;;;;;;;4.38;3.60;;;;;;;15.33;100.00;164573.75;5049862;28;20076;-59
2023/03/17 11:09:25;;;;;;;4.93;4.18;;;;;;;15.18;100.00;164535.84;5053623;28;20040;-59
2023/03/17 11:12:01;;;;;;;9.00;4.03;;;;;;;15.07;100.00;164506.09;5054227;28;20074;-59
2023/03/17 11:14:27;;;;;;;5.22;4.30;;;;;;;14.99;100.00;164484.44;5054610;28;20582;-59
2023/03/17 11:17:03;;;;;;;4.82;3.75;;;;;;;14.91;100.00;164465.50;5062820;28;20063;-59
2023/03/17 11:19:43;;;;;;;9.18;6.25;;;;;;;15.28;100.00;164560.22;5050949;28;20044;-59
2023/03/17 11:22:22;;;;;;;8.02;3.13;;;;;;;15.53;100.00;164626.56;5063102;28;20036;-59
2023/03/17 11:25:12;;;;;;;7.97;4.43;;;;;;;15.39;100.00;164591.34;5050409;28;20519;-59